Time;durP1;ratioP1;P1;durP2;ratioP2;P2;SDS_P1;SDS_P2;PMS_P1;PMS_P2;Temp;Humidity;BMP_temperature;BMP_pressure;BME280_temperature;BME280_humidity;BME280_pressure;Samples;Min_cycle;Max_cycle;Signal;HPM_P1;HPM_P2
2023/10/27 00:00:00;;;;;;;14.68;3.45;;;;;;;;;;5005234;28;20029;-75
2023/10/27 00:02:25;;;;;;;10.13;2.85;;;;;;;;;;5005753;28;20818;-75
2023/10/27 00:04:50;;;;;;;10.70;3.03;;;;;;;;;;5005798;28;20042;-76
2023/10/27 00:07:16;;;;;;;12.38;2.40;;;;;;;;;;5005536;28;20037;-76
2023/10/27 00:09:41;;;;;;;6.20;2.75;;;;;;;;;;5004166;28;20049;-76
2023/10/27 00:12:07;;;;;;;7.95;2.22;;;;;;;;;;5005923;28;20033;-75
2023/10/27 00:14:33;;;;;;;8.82;2.20;;;;;;;;;;4984344;28;20042;-76
2023/10/27 00:16:59;;;;;;;7.00;2.38;;;;;;;;;;4986293;28;20108;-76
2023/10/27 00:19:24;;;;;;;12.43;2.22;;;;;;;;;;4987830;28;20046;-76
2023/10/27 00:21:50;;;;;;;10.75;2.30;;;;;;;;;;5005400;28;20117;-76
2023/10/27 00:24:15;;;;;;;11.15;2.47;;;;;;;;;;5004270;28;20501;-76
2023/10/27 00:26:40;;;;;;;6.90;2.10;;;;;;;;;;5005501;28;20044;-76
2023/10/27 00:29:06;;;;;;;10.07;2.40;;;;;;;;;;5004002;28;20061;-76
2023/10/27 00:31:31;;;;;;;9.23;2.55;;;;;;;;;;5004054;28;20038;-76
2023/10/27 00:33:56;;;;;;;7.45;2.17;;;;;;;;;;5005174;28;20026;-76
2023/10/27 00:36:22;;;;;;;8.63;2.60;;;;;;;;;;5004652;28;20026;-76
2023/10/27 00:38:48;;;;;;;6.15;2.10;;;;;;;;;;5005786;28;20026;-76
2023/10/27 00:41:14;;;;;;;7.68;2.55;;;;;;;;;;5005869;28;20088;-76
2023/10/27 00:43:39;;;;;;;6.80;2.13;;;;;;;;;;5004618;28;20038;-76
2023/10/27 00:46:05;;;;;;;8.88;2.60;;;;;;;;;;5005934;28;20041;-76
2023/10/27 00:48:31;;;;;;;11.07;2.72;;;;;;;;;;5005407;28;20025;-76
2023/10/27 00:50:56;;;;;;;7.53;2.22;;;;;;;;;;5004575;28;20032;-76
2023/10/27 00:53:22;;;;;;;7.50;2.65;;;;;;;;;;5006896;28;20095;-76
2023/10/27 00:55:49;;;;;;;5.40;2.15;;;;;;;;;;5009242;28;20053;-77
2023/10/27 00:58:15;;;;;;;11.35;2.58;;;;;;;;;;5018608;28;20080;-76
2023/10/27 01:00:41;;;;;;;9.95;2.33;;;;;;;;;;5018449;28;20042;-75
2023/10/27 01:03:06;;;;;;;8.80;2.22;;;;;;;;;;5006610;28;20014;-76
2023/10/27 01:05:31;;;;;;;7.07;2.20;;;;;;;;;;5005489;28;20034;-76
2023/10/27 01:07:58;;;;;;;5.78;2.25;;;;;;;;;;5003872;28;20029;-76
2023/10/27 01:10:23;;;;;;;8.73;2.05;;;;;;;;;;5003520;28;20037;-76
2023/10/27 01:12:50;;;;;;;6.63;2.33;;;;;;;;;;4997256;28;20034;-76
2023/10/27 01:15:16;;;;;;;7.07;2.10;;;;;;;;;;4984715;28;20056;-76
2023/10/27 01:17:41;;;;;;;10.68;2.25;;;;;;;;;;4985042;28;20999;-76
2023/10/27 01:20:07;;;;;;;6.85;1.80;;;;;;;;;;4985312;28;20038;-76
2023/10/27 01:22:34;;;;;;;5.28;1.85;;;;;;;;;;4983478;28;20045;-76
2023/10/27 01:25:00;;;;;;;5.20;1.83;;;;;;;;;;4985110;28;20045;-76
2023/10/27 01:27:25;;;;;;;5.85;1.75;;;;;;;;;;4985070;28;20049;-76
2023/10/27 01:29:50;;;;;;;7.70;2.00;;;;;;;;;;4985343;28;20114;-76
2023/10/27 01:32:16;;;;;;;3.30;1.70;;;;;;;;;;4984891;28;20104;-75
2023/10/27 01:34:41;;;;;;;8.52;2.15;;;;;;;;;;4985043;28;20039;-76
2023/10/27 01:37:06;;;;;;;4.45;2.08;;;;;;;;;;4999440;28;20041;-76
2023/10/27 01:39:32;;;;;;;5.47;1.90;;;;;;;;;;4985021;28;20026;-76
2023/10/27 01:41:57;;;;;;;8.35;2.13;;;;;;;;;;4984974;28;20516;-76
2023/10/27 01:44:22;;;;;;;8.15;1.85;;;;;;;;;;4984961;28;20061;-76
2023/10/27 01:46:48;;;;;;;6.50;1.52;;;;;;;;;;4999486;28;20093;-76
2023/10/27 01:49:13;;;;;;;6.22;1.55;;;;;;;;;;4984482;28;20057;-76
2023/10/27 01:51:39;;;;;;;6.50;1.88;;;;;;;;;;4984763;28;20030;-76
2023/10/27 01:54:04;;;;;;;7.85;1.90;;;;;;;;;;4983958;28;20110;-76
2023/10/27 01:56:30;;;;;;;4.32;1.80;;;;;;;;;;4984653;28;20037;-76
2023/10/27 01:58:55;;;;;;;4.05;1.73;;;;;;;;;;5002315;28;20112;-76
2023/10/27 02:01:21;;;;;;;8.23;2.20;;;;;;;;;;5000352;28;20464;-76
2023/10/27 02:03:46;;;;;;;9.80;2.10;;;;;;;;;;5004390;28;20425;-76
2023/10/27 02:06:12;;;;;;;6.55;1.75;;;;;;;;;;5004243;28;20087;-76
2023/10/27 02:08:38;;;;;;;6.38;1.73;;;;;;;;;;5003206;28;20032;-75
2023/10/27 02:11:06;;;;;;;3.95;1.45;;;;;;;;;;5003373;28;20045;-76
2023/10/27 02:13:31;;;;;;;6.40;1.90;;;;;;;;;;4992392;28;20038;-76
2023/10/27 02:15:57;;;;;;;6.63;1.75;;;;;;;;;;4993144;28;20053;-77
2023/10/27 02:18:22;;;;;;;4.45;1.55;;;;;;;;;;5001484;28;20030;-76
2023/10/27 02:20:48;;;;;;;3.03;1.23;;;;;;;;;;4992144;28;20031;-76
2023/10/27 02:23:15;;;;;;;2.83;1.30;;;;;;;;;;4988988;28;20053;-76
2023/10/27 02:25:40;;;;;;;5.18;1.70;;;;;;;;;;4978837;28;20073;-76
2023/10/27 02:28:06;;;;;;;5.03;1.30;;;;;;;;;;4970758;28;20030;-76
2023/10/27 02:30:31;;;;;;;4.53;1.15;;;;;;;;;;4999824;28;20057;-75
2023/10/27 02:32:56;;;;;;;4.55;1.27;;;;;;;;;;5008316;28;20030;-76
2023/10/27 02:35:22;;;;;;;2.72;1.40;;;;;;;;;;5007983;28;20041;-76
2023/10/27 02:37:48;;;;;;;3.40;1.50;;;;;;;;;;4989363;28;20148;-76
2023/10/27 02:40:13;;;;;;;4.30;1.48;;;;;;;;;;4984049;28;20125;-76
2023/10/27 02:42:39;;;;;;;1.60;1.00;;;;;;;;;;4988591;28;20034;-76
2023/10/27 02:45:06;;;;;;;4.35;1.40;;;;;;;;;;4988398;28;20058;-76
2023/10/27 02:47:31;;;;;;;6.35;1.90;;;;;;;;;;4987998;28;20046;-76
2023/10/27 02:49:56;;;;;;;2.50;1.40;;;;;;;;;;4987590;28;20053;-75
2023/10/27 02:52:22;;;;;;;5.18;1.63;;;;;;;;;;4987972;28;20038;-76
2023/10/27 02:54:47;;;;;;;2.58;1.30;;;;;;;;;;4987796;28;20679;-75
2023/10/27 02:57:12;;;;;;;10.52;1.50;;;;;;;;;;4989235;28;20049;-76
2023/10/27 02:59:39;;;;;;;3.40;1.38;;;;;;;;;;5025946;28;20052;-75
2023/10/27 03:02:05;;;;;;;3.60;0.77;;;;;;;;;;5025189;28;20076;-75
2023/10/27 03:04:31;;;;;;;2.65;1.20;;;;;;;;;;5025380;28;20037;-75
2023/10/27 03:06:56;;;;;;;3.63;1.10;;;;;;;;;;5024982;28;20448;-76
2023/10/27 03:09:21;;;;;;;3.35;1.60;;;;;;;;;;5027107;28;20061;-75
2023/10/27 03:11:47;;;;;;;4.53;1.50;;;;;;;;;;5027426;28;20087;-76
2023/10/27 03:14:12;;;;;;;2.03;1.25;;;;;;;;;;5025776;28;20052;-76
2023/10/27 03:16:38;;;;;;;3.03;1.70;;;;;;;;;;5026961;28;20041;-76
2023/10/27 03:19:03;;;;;;;6.60;1.85;;;;;;;;;;5008897;28;20412;-76
2023/10/27 03:21:29;;;;;;;4.25;1.60;;;;;;;;;;5026295;28;20052;-76
2023/10/27 03:23:54;;;;;;;6.28;1.50;;;;;;;;;;5027389;28;20079;-76
2023/10/27 03:26:19;;;;;;;5.53;1.55;;;;;;;;;;5026356;28;20049;-76
2023/10/27 03:28:44;;;;;;;3.22;1.50;;;;;;;;;;5008021;28;20054;-76
2023/10/27 03:31:12;;;;;;;3.90;1.50;;;;;;;;;;5005517;28;20087;-76
2023/10/27 03:33:38;;;;;;;2.30;1.50;;;;;;;;;;5008238;28;20045;-76
2023/10/27 03:36:04;;;;;;;5.60;1.50;;;;;;;;;;5019900;28;20061;-76
2023/10/27 03:38:29;;;;;;;4.53;1.52;;;;;;;;;;5023656;28;20041;-76
2023/10/27 03:40:55;;;;;;;2.13;1.20;;;;;;;;;;5009907;28;20129;-76
2023/10/27 03:43:20;;;;;;;2.17;1.67;;;;;;;;;;5007832;28;20111;-76
2023/10/27 03:45:45;;;;;;;4.40;1.50;;;;;;;;;;5005783;28;20091;-76
2023/10/27 03:48:11;;;;;;;3.22;1.40;;;;;;;;;;5007014;28;20022;-76
2023/10/27 03:50:36;;;;;;;3.15;1.55;;;;;;;;;;5006823;28;20048;-76
2023/10/27 03:53:02;;;;;;;3.97;1.65;;;;;;;;;;5006103;28;20034;-76
2023/10/27 03:55:27;;;;;;;5.43;1.60;;;;;;;;;;5005020;28;20030;-76
2023/10/27 03:57:55;;;;;;;3.15;1.50;;;;;;;;;;5012644;28;20456;-76
2023/10/27 04:00:20;;;;;;;6.18;1.70;;;;;;;;;;5026379;28;20489;-76
2023/10/27 04:02:46;;;;;;;2.45;1.77;;;;;;;;;;5024459;28;20612;-76
2023/10/27 04:05:11;;;;;;;5.03;1.75;;;;;;;;;;5025843;28;20045;-76
2023/10/27 04:07:37;;;;;;;4.55;1.85;;;;;;;;;;5026137;28;20049;-76
2023/10/27 04:10:02;;;;;;;6.60;2.15;;;;;;;;;;5025931;28;20041;-76
2023/10/27 04:12:28;;;;;;;9.48;2.30;;;;;;;;;;5023794;28;20144;-76
2023/10/27 04:14:54;;;;;;;6.50;2.30;;;;;;;;;;5008533;28;20413;-76
2023/10/27 04:17:19;;;;;;;4.97;2.30;;;;;;;;;;5025657;28;20037;-76
2023/10/27 04:19:45;;;;;;;5.60;2.03;;;;;;;;;;5011699;28;20104;-76
2023/10/27 04:22:10;;;;;;;6.90;2.20;;;;;;;;;;5005743;28;20038;-76
2023/10/27 04:24:36;;;;;;;5.85;2.35;;;;;;;;;;5005994;28;20026;-76
2023/10/27 04:27:01;;;;;;;4.20;2.20;;;;;;;;;;5005443;28;20029;-76
2023/10/27 04:29:26;;;;;;;8.75;2.78;;;;;;;;;;5005871;28;20129;-76
2023/10/27 04:31:52;;;;;;;6.50;1.92;;;;;;;;;;5004980;28;20398;-76
2023/10/27 04:34:17;;;;;;;6.40;2.75;;;;;;;;;;5005364;28;20509;-76
2023/10/27 04:36:44;;;;;;;8.68;2.85;;;;;;;;;;4987629;28;20038;-75
2023/10/27 04:39:10;;;;;;;8.38;3.22;;;;;;;;;;5004686;28;20033;-76
2023/10/27 04:41:35;;;;;;;9.48;3.47;;;;;;;;;;4987762;28;20068;-76
2023/10/27 04:44:00;;;;;;;5.90;3.70;;;;;;;;;;5004811;28;20140;-76
2023/10/27 04:46:26;;;;;;;9.98;3.40;;;;;;;;;;5005708;28;20042;-76
2023/10/27 04:48:52;;;;;;;8.45;3.80;;;;;;;;;;5014041;28;20048;-76
2023/10/27 04:51:17;;;;;;;7.22;3.42;;;;;;;;;;5008305;28;20128;-76
2023/10/27 04:53:43;;;;;;;8.27;3.53;;;;;;;;;;5030278;28;20124;-76
2023/10/27 04:56:08;;;;;;;11.30;3.30;;;;;;;;;;5037568;28;20079;-76
2023/10/27 04:58:33;;;;;;;12.70;3.97;;;;;;;;;;5031373;28;20053;-76
2023/10/27 05:00:59;;;;;;;10.38;3.42;;;;;;;;;;5023434;28;20365;-76
2023/10/27 05:03:24;;;;;;;7.30;3.08;;;;;;;;;;5024508;28;20156;-76
2023/10/27 05:05:51;;;;;;;11.15;3.90;;;;;;;;;;5024779;28;20116;-76
2023/10/27 05:08:16;;;;;;;12.35;3.72;;;;;;;;;;5024787;28;20037;-75
2023/10/27 05:10:42;;;;;;;5.20;2.90;;;;;;;;;;5020918;28;20192;-76
2023/10/27 05:13:08;;;;;;;11.57;3.78;;;;;;;;;;4995959;28;20033;-76
2023/10/27 05:15:33;;;;;;;7.32;3.20;;;;;;;;;;5024566;28;20025;-76
2023/10/27 05:18:04;;;;;;;10.82;3.72;;;;;;;;;;5006994;28;20033;-76
2023/10/27 05:20:39;;;;;;;10.18;3.42;;;;;;;;;;5006291;28;20128;-76
2023/10/27 05:23:04;;;;;;;7.88;3.15;;;;;;;;;;5006526;28;20125;-76
2023/10/27 05:25:30;;;;;;;15.18;4.93;;;;;;;;;;5024356;28;20055;-76
2023/10/27 05:27:55;;;;;;;6.40;3.13;;;;;;;;;;5017348;28;20041;-76
2023/10/27 05:30:20;;;;;;;11.85;3.85;;;;;;;;;;5004661;28;20041;-76
2023/10/27 05:32:46;;;;;;;12.88;4.32;;;;;;;;;;5004553;28;20141;-76
2023/10/27 05:35:11;;;;;;;10.23;3.88;;;;;;;;;;5004569;28;20523;-75
2023/10/27 05:37:36;;;;;;;10.48;4.07;;;;;;;;;;5038655;28;20041;-76
2023/10/27 05:40:02;;;;;;;8.52;4.00;;;;;;;;;;5025871;28;20489;-76
2023/10/27 05:42:27;;;;;;;12.52;4.05;;;;;;;;;;5044078;28;20439;-75
2023/10/27 05:44:52;;;;;;;9.35;4.00;;;;;;;;;;5043918;28;20040;-76
2023/10/27 05:47:19;;;;;;;10.02;3.70;;;;;;;;;;5044295;28;20036;-75
2023/10/27 05:49:44;;;;;;;7.93;2.88;;;;;;;;;;5025564;28;20049;-76
2023/10/27 05:52:10;;;;;;;14.73;3.85;;;;;;;;;;5043389;28;20690;-76
2023/10/27 05:54:35;;;;;;;11.05;3.35;;;;;;;;;;5025824;28;20558;-76
2023/10/27 05:57:00;;;;;;;10.05;3.75;;;;;;;;;;5044338;28;20036;-76
2023/10/27 05:59:26;;;;;;;9.55;4.30;;;;;;;;;;5007659;28;20519;-76
2023/10/27 06:01:53;;;;;;;10.82;4.28;;;;;;;;;;4986233;28;20046;-76
2023/10/27 06:04:19;;;;;;;10.50;3.58;;;;;;;;;;5002634;28;20038;-75
2023/10/27 06:06:44;;;;;;;12.73;3.72;;;;;;;;;;5004228;28;20095;-76
2023/10/27 06:09:10;;;;;;;11.98;4.00;;;;;;;;;;5005307;28;20137;-76
2023/10/27 06:11:35;;;;;;;10.68;4.57;;;;;;;;;;5006263;28;20033;-76
2023/10/27 06:14:02;;;;;;;14.45;4.47;;;;;;;;;;5030642;28;20040;-76
2023/10/27 06:16:27;;;;;;;18.23;4.88;;;;;;;;;;5040839;28;20033;-76
2023/10/27 06:18:54;;;;;;;17.17;4.32;;;;;;;;;;5012798;28;20071;-76
2023/10/27 06:21:19;;;;;;;12.50;4.93;;;;;;;;;;5006648;28;20041;-76
2023/10/27 06:23:45;;;;;;;13.95;5.25;;;;;;;;;;5023213;28;20037;-76
2023/10/27 06:26:10;;;;;;;17.20;5.22;;;;;;;;;;5023690;28;20037;-76
2023/10/27 06:28:36;;;;;;;10.38;5.72;;;;;;;;;;5021979;28;20180;-76
2023/10/27 06:31:02;;;;;;;14.15;4.90;;;;;;;;;;5022880;28;20104;-76
2023/10/27 06:33:28;;;;;;;13.65;4.97;;;;;;;;;;5024099;28;20033;-75
2023/10/27 06:35:55;;;;;;;17.52;5.50;;;;;;;;;;5023956;28;20028;-76
2023/10/27 06:38:20;;;;;;;14.48;4.72;;;;;;;;;;5020738;28;20512;-76
2023/10/27 06:40:46;;;;;;;16.55;4.60;;;;;;;;;;5023222;28;20037;-76
2023/10/27 06:43:11;;;;;;;18.88;4.97;;;;;;;;;;5021702;28;20053;-76
2023/10/27 06:45:36;;;;;;;15.55;4.75;;;;;;;;;;5022718;28;20049;-76
2023/10/27 06:48:02;;;;;;;18.45;5.07;;;;;;;;;;5024253;28;20025;-75
2023/10/27 06:50:28;;;;;;;16.88;5.28;;;;;;;;;;5023024;28;20059;-76
2023/10/27 06:52:53;;;;;;;18.48;6.13;;;;;;;;;;5023013;28;20041;-75
2023/10/27 06:55:18;;;;;;;23.00;5.45;;;;;;;;;;5020803;28;20851;-75
2023/10/27 06:57:44;;;;;;;12.85;4.80;;;;;;;;;;5022273;28;20519;-75
2023/10/27 07:00:09;;;;;;;14.40;6.53;;;;;;;;;;5018429;28;20047;-74
2023/10/27 07:02:35;;;;;;;15.93;5.93;;;;;;;;;;5015976;28;20056;-76
2023/10/27 07:05:00;;;;;;;24.83;6.57;;;;;;;;;;5026628;28;20077;-75
2023/10/27 07:07:25;;;;;;;18.52;6.47;;;;;;;;;;5026124;28;20071;-76
2023/10/27 07:09:51;;;;;;;27.27;11.30;;;;;;;;;;5008050;28;20046;-76
2023/10/27 07:12:16;;;;;;;20.17;8.15;;;;;;;;;;5009315;28;20112;-75
2023/10/27 07:14:42;;;;;;;31.77;8.57;;;;;;;;;;5026196;28;20834;-76
2023/10/27 07:17:07;;;;;;;25.50;7.70;;;;;;;;;;5026340;28;20041;-75
2023/10/27 07:19:33;;;;;;;22.15;8.60;;;;;;;;;;5026441;28;20428;-76
2023/10/27 07:21:59;;;;;;;21.63;7.20;;;;;;;;;;5026513;28;20041;-75
2023/10/27 07:24:25;;;;;;;20.98;7.25;;;;;;;;;;5026506;28;20537;-76
2023/10/27 07:26:51;;;;;;;16.42;7.00;;;;;;;;;;5027019;28;20940;-76
2023/10/27 07:29:16;;;;;;;17.48;7.25;;;;;;;;;;5026587;28;20128;-76
2023/10/27 07:31:42;;;;;;;18.95;7.25;;;;;;;;;;5028652;28;20082;-76
2023/10/27 07:34:07;;;;;;;19.83;7.50;;;;;;;;;;5036993;28;20517;-76
2023/10/27 07:36:33;;;;;;;17.67;6.55;;;;;;;;;;5036820;28;20037;-76
2023/10/27 07:38:58;;;;;;;19.23;6.45;;;;;;;;;;5008156;28;20416;-76
2023/10/27 07:41:24;;;;;;;18.70;6.05;;;;;;;;;;5025608;28;20038;-76
2023/10/27 07:43:49;;;;;;;18.92;5.85;;;;;;;;;;5025654;28;20099;-76
2023/10/27 07:46:15;;;;;;;17.08;5.80;;;;;;;;;;5000122;28;20513;-75
2023/10/27 07:48:41;;;;;;;16.33;5.72;;;;;;;;;;5018409;28;20053;-76
2023/10/27 07:51:06;;;;;;;20.88;6.50;;;;;;;;;;5026755;28;20022;-76
2023/10/27 07:53:32;;;;;;;14.60;4.97;;;;;;;;;;5025676;28;20045;-76
2023/10/27 07:55:57;;;;;;;15.48;4.70;;;;;;;;;;5026289;28;20036;-76
2023/10/27 07:58:25;;;;;;;16.15;5.10;;;;;;;;;;5024882;28;20049;-76
2023/10/27 08:00:53;;;;;;;13.05;5.07;;;;;;;;;;5026139;28;20097;-76
2023/10/27 08:03:21;;;;;;;16.15;4.72;;;;;;;;;;5026661;28;20037;-76
2023/10/27 08:05:47;;;;;;;17.73;4.72;;;;;;;;;;5025993;28;20049;-76
2023/10/27 08:08:13;;;;;;;12.32;4.95;;;;;;;;;;5024413;28;20045;-76
2023/10/27 08:10:38;;;;;;;14.48;4.88;;;;;;;;;;5024005;28;20426;-77
2023/10/27 08:13:05;;;;;;;21.17;4.90;;;;;;;;;;5020105;28;20052;-76
2023/10/27 08:15:32;;;;;;;13.65;3.78;;;;;;;;;;5008049;28;20836;-75
2023/10/27 08:17:57;;;;;;;16.60;4.65;;;;;;;;;;5026317;28;20068;-75
2023/10/27 08:20:22;;;;;;;10.90;4.68;;;;;;;;;;5007298;28;20124;-76
2023/10/27 08:22:48;;;;;;;11.57;4.45;;;;;;;;;;5003478;28;20033;-76
2023/10/27 08:25:13;;;;;;;12.10;4.40;;;;;;;;;;5003130;28;20038;-76
2023/10/27 08:27:39;;;;;;;12.73;4.72;;;;;;;;;;5004420;28;20036;-76
2023/10/27 08:30:05;;;;;;;10.75;4.40;;;;;;;;;;5024394;28;20540;-76
2023/10/27 08:32:30;;;;;;;12.88;3.90;;;;;;;;;;5025307;28;20067;-76
2023/10/27 08:34:56;;;;;;;17.65;4.32;;;;;;;;;;5025423;28;20079;-76
2023/10/27 08:37:21;;;;;;;8.25;3.90;;;;;;;;;;5025071;28;20037;-77
2023/10/27 08:39:46;;;;;;;12.82;3.80;;;;;;;;;;5024029;28;20037;-75
2023/10/27 08:42:12;;;;;;;9.45;3.42;;;;;;;;;;5019965;28;20022;-76
2023/10/27 08:44:40;;;;;;;8.75;3.45;;;;;;;;;;5005245;28;20125;-75
2023/10/27 08:47:05;;;;;;;10.95;3.80;;;;;;;;;;5005701;28;20111;-75
2023/10/27 08:49:31;;;;;;;9.30;2.97;;;;;;;;;;4989096;28;20533;-74
2023/10/27 08:51:59;;;;;;;11.95;3.78;;;;;;;;;;5012874;28;20052;-74
2023/10/27 08:54:24;;;;;;;14.65;3.88;;;;;;;;;;5021014;28;20053;-75
2023/10/27 08:56:49;;;;;;;9.88;3.50;;;;;;;;;;5007646;28;20025;-74
2023/10/27 08:59:15;;;;;;;7.30;3.38;;;;;;;;;;5025580;28;20128;-74
2023/10/27 09:01:41;;;;;;;7.38;3.63;;;;;;;;;;5008034;28;20060;-74
2023/10/27 09:04:06;;;;;;;15.02;4.70;;;;;;;;;;5007411;28;20107;-75
2023/10/27 09:06:32;;;;;;;9.52;3.38;;;;;;;;;;5024386;28;20334;-74
2023/10/27 09:08:57;;;;;;;8.10;3.08;;;;;;;;;;5004162;28;20052;-74
2023/10/27 09:11:23;;;;;;;11.95;3.67;;;;;;;;;;5018196;28;20049;-74
2023/10/27 09:13:48;;;;;;;9.65;3.00;;;;;;;;;;5019207;28;20698;-73
2023/10/27 09:16:26;;;;;;;6.40;2.95;;;;;;;;;;5023227;28;20475;-74
2023/10/27 09:18:52;;;;;;;8.38;2.97;;;;;;;;;;5024115;28;20107;-72
2023/10/27 09:21:36;;;;;;;12.32;3.20;;;;;;;;;;5024139;28;20496;-72
2023/10/27 09:24:01;;;;;;;4.95;2.70;;;;;;;;;;5024330;28;20103;-71
2023/10/27 09:26:29;;;;;;;11.15;3.65;;;;;;;;;;5023768;28;20041;-73
2023/10/27 09:29:01;;;;;;;10.90;3.28;;;;;;;;;;5005870;28;20136;-71
2023/10/27 09:31:35;;;;;;;12.00;2.97;;;;;;;;;;5023613;28;20091;-73
2023/10/27 09:34:20;;;;;;;8.02;2.80;;;;;;;;;;5004042;28;20052;-72
2023/10/27 09:36:49;;;;;;;8.75;2.97;;;;;;;;;;5020582;28;20041;-72
2023/10/27 09:39:16;;;;;;;10.90;3.22;;;;;;;;;;5018369;28;20021;-73
2023/10/27 09:41:47;;;;;;;6.65;2.63;;;;;;;;;;5000746;28;20739;-72
2023/10/27 09:44:16;;;;;;;10.55;2.70;;;;;;;;;;4985961;28;20038;-73
2023/10/27 09:46:54;;;;;;;9.95;2.65;;;;;;;;;;5004078;28;20037;-78
2023/10/27 09:49:29;;;;;;;10.02;2.67;;;;;;;;;;5004481;28;20034;-73
2023/10/27 09:52:00;;;;;;;13.55;3.05;;;;;;;;;;5010263;28;20428;-74
2023/10/27 09:54:31;;;;;;;6.35;2.72;;;;;;;;;;5023530;28;20063;-74
2023/10/27 09:56:58;;;;;;;6.00;3.03;;;;;;;;;;5008831;28;20428;-75
2023/10/27 09:59:24;;;;;;;10.20;3.05;;;;;;;;;;5021509;28;21019;-74
2023/10/27 10:01:49;;;;;;;8.05;3.20;;;;;;;;;;5002324;28;20140;-74
2023/10/27 10:04:14;;;;;;;8.57;2.83;;;;;;;;;;5006123;28;20065;-74
2023/10/27 10:06:40;;;;;;;9.48;2.40;;;;;;;;;;5006071;28;20547;-74
2023/10/27 10:09:09;;;;;;;7.88;2.72;;;;;;;;;;5025876;28;20045;-74
2023/10/27 10:11:54;;;;;;;14.73;2.75;;;;;;;;;;5031563;28;20040;-74
2023/10/27 10:14:40;;;;;;;6.93;2.20;;;;;;;;;;5029731;28;20057;-74
2023/10/27 10:17:06;;;;;;;4.85;2.50;;;;;;;;;;5012194;28;20041;-74
2023/10/27 10:20:01;;;;;;;8.13;2.42;;;;;;;;;;5017801;28;20680;-74
2023/10/27 10:22:38;;;;;;;7.35;2.53;;;;;;;;;;5006291;28;20576;-74
2023/10/27 10:25:19;;;;;;;6.55;2.78;;;;;;;;;;5005544;28;20044;-75
2023/10/27 10:28:09;;;;;;;9.35;2.63;;;;;;;;;;5021456;28;20440;-74
2023/10/27 10:30:37;;;;;;;6.93;2.80;;;;;;;;;;5021030;28;20026;-75
2023/10/27 10:33:25;;;;;;;6.72;2.95;;;;;;;;;;5022173;28;20585;-75
2023/10/27 10:35:52;;;;;;;10.73;2.65;;;;;;;;;;5001924;28;20674;-76
2023/10/27 10:38:23;;;;;;;6.47;2.70;;;;;;;;;;5021565;28;20043;-75
2023/10/27 10:40:59;;;;;;;9.13;2.58;;;;;;;;;;5016194;28;20662;-75
2023/10/27 10:43:37;;;;;;;12.13;2.67;;;;;;;;;;4987396;28;20045;-75
2023/10/27 10:46:04;;;;;;;5.60;2.28;;;;;;;;;;5003754;28;20513;-75
2023/10/27 10:48:31;;;;;;;6.30;1.88;;;;;;;;;;5005807;28;20464;-75
2023/10/27 10:51:03;;;;;;;6.40;1.98;;;;;;;;;;5001737;28;20067;-75
2023/10/27 10:53:30;;;;;;;7.05;2.17;;;;;;;;;;5021979;28;20142;-73
2023/10/27 10:56:00;;;;;;;8.45;2.85;;;;;;;;;;5003179;28;20048;-74
2023/10/27 10:58:30;;;;;;;6.32;2.10;;;;;;;;;;5015444;28;20134;-74
2023/10/27 11:00:57;;;;;;;6.55;1.90;;;;;;;;;;5018598;28;20036;-74
2023/10/27 11:03:24;;;;;;;6.20;2.30;;;;;;;;;;5018694;28;20048;-74
2023/10/27 11:05:59;;;;;;;5.43;1.70;;;;;;;;;;5017483;28;20500;-74
2023/10/27 11:08:37;;;;;;;5.18;2.03;;;;;;;;;;5015863;28;20042;-75
2023/10/27 11:11:03;;;;;;;6.22;1.60;;;;;;;;;;5022903;28;20048;-74
2023/10/27 11:13:30;;;;;;;7.20;1.58;;;;;;;;;;4992270;28;20591;-74
2023/10/27 11:15:55;;;;;;;6.38;1.60;;;;;;;;;;4991923;28;20045;-73
2023/10/27 11:18:21;;;;;;;7.38;1.52;;;;;;;;;;5009356;28;20037;-74
2023/10/27 11:20:48;;;;;;;4.10;1.17;;;;;;;;;;5023415;28;20492;-73
2023/10/27 11:23:14;;;;;;;3.65;1.60;;;;;;;;;;4989206;28;21818;-73
2023/10/27 11:25:41;;;;;;;7.68;1.40;;;;;;;;;;4993952;28;20543;-74
2023/10/27 11:28:26;;;;;;;4.15;1.83;;;;;;;;;;5005661;28;20068;-74
2023/10/27 11:31:12;;;;;;;6.43;2.05;;;;;;;;;;5009633;28;20139;-73
2023/10/27 11:34:00;;;;;;;6.03;1.40;;;;;;;;;;5007460;28;20412;-74
2023/10/27 11:36:34;;;;;;;3.72;1.40;;;;;;;;;;4996968;28;20029;-74
2023/10/27 11:39:19;;;;;;;4.65;1.25;;;;;;;;;;4997002;28;20562;-74
2023/10/27 11:41:55;;;;;;;1.88;1.10;;;;;;;;;;4992535;28;20052;-74
2023/10/27 11:44:21;;;;;;;2.83;1.42;;;;;;;;;;4993247;28;20046;-74
2023/10/27 11:46:51;;;;;;;3.03;1.25;;;;;;;;;;4992730;28;20049;-74
2023/10/27 11:49:18;;;;;;;2.83;1.20;;;;;;;;;;4995219;28;20048;-74
2023/10/27 11:51:48;;;;;;;3.55;1.45;;;;;;;;;;4974468;28;20048;-74
2023/10/27 11:54:15;;;;;;;6.28;1.38;;;;;;;;;;5001888;28;20666;-74
2023/10/27 11:56:40;;;;;;;5.30;1.63;;;;;;;;;;4996117;28;20076;-74
2023/10/27 11:59:06;;;;;;;7.85;1.80;;;;;;;;;;4975349;28;20595;-74
2023/10/27 12:01:31;;;;;;;4.05;1.40;;;;;;;;;;4993868;28;20056;-74
2023/10/27 12:03:57;;;;;;;1.55;1.33;;;;;;;;;;4975332;28;20074;-74
2023/10/27 12:06:22;;;;;;;2.42;1.40;;;;;;;;;;4993180;28;20503;-74
2023/10/27 12:08:48;;;;;;;5.93;1.70;;;;;;;;;;4990405;28;20507;-74
2023/10/27 12:11:17;;;;;;;2.88;1.23;;;;;;;;;;5001361;28;20095;-74
2023/10/27 12:13:47;;;;;;;4.65;1.60;;;;;;;;;;4989410;28;20044;-74
2023/10/27 12:16:13;;;;;;;3.85;1.75;;;;;;;;;;4990683;28;20030;-74
2023/10/27 12:18:38;;;;;;;5.30;1.70;;;;;;;;;;4993321;28;20040;-74
2023/10/27 12:21:04;;;;;;;13.27;1.90;;;;;;;;;;4998827;28;21774;-74
2023/10/27 12:23:30;;;;;;;4.65;1.80;;;;;;;;;;5001004;28;20037;-74
2023/10/27 12:26:01;;;;;;;4.90;1.88;;;;;;;;;;4993855;28;20068;-74
2023/10/27 12:28:27;;;;;;;6.57;2.00;;;;;;;;;;4999502;28;20037;-74
2023/10/27 12:30:58;;;;;;;4.72;1.90;;;;;;;;;;4998640;28;20046;-74
2023/10/27 12:33:23;;;;;;;7.40;2.00;;;;;;;;;;4980125;28;20106;-74
2023/10/27 12:35:49;;;;;;;6.43;1.67;;;;;;;;;;4987325;28;20914;-74
2023/10/27 12:38:16;;;;;;;6.40;1.67;;;;;;;;;;5007847;28;20051;-74
2023/10/27 12:40:42;;;;;;;4.30;1.67;;;;;;;;;;5008044;28;20037;-73
2023/10/27 12:43:12;;;;;;;8.25;1.58;;;;;;;;;;5011984;28;20187;-74
2023/10/27 12:45:38;;;;;;;5.20;1.67;;;;;;;;;;5000989;28;20021;-74
2023/10/27 12:48:04;;;;;;;4.65;1.35;;;;;;;;;;5009810;28;20033;-74
2023/10/27 12:50:30;;;;;;;2.15;1.23;;;;;;;;;;5002311;28;20884;-74
2023/10/27 12:52:56;;;;;;;3.40;1.38;;;;;;;;;;5016706;28;20050;-74
2023/10/27 12:55:22;;;;;;;3.65;1.40;;;;;;;;;;4997573;28;20044;-74
2023/10/27 12:57:47;;;;;;;6.88;2.03;;;;;;;;;;4986869;28;20046;-74
2023/10/27 13:00:20;;;;;;;4.80;0.98;;;;;;;;;;4989112;28;20032;-74
2023/10/27 13:02:46;;;;;;;2.38;1.00;;;;;;;;;;4976096;28;20044;-74
2023/10/27 13:05:17;;;;;;;1.13;0.98;;;;;;;;;;4991312;28;20041;-74
2023/10/27 13:07:42;;;;;;;2.28;1.10;;;;;;;;;;4974942;28;20736;-74
2023/10/27 13:10:08;;;;;;;3.85;1.10;;;;;;;;;;4998855;28;20037;-74
2023/10/27 13:12:34;;;;;;;5.20;1.23;;;;;;;;;;4998118;28;20061;-73
2023/10/27 13:15:00;;;;;;;3.20;1.50;;;;;;;;;;5003439;28;20837;-73
2023/10/27 13:17:25;;;;;;;5.10;1.30;;;;;;;;;;5005881;28;20038;-74
2023/10/27 13:19:51;;;;;;;4.05;1.45;;;;;;;;;;4970368;28;20046;-74
2023/10/27 13:22:16;;;;;;;2.08;1.25;;;;;;;;;;5006709;28;20413;-74
2023/10/27 13:24:42;;;;;;;3.15;1.17;;;;;;;;;;5003805;28;20424;-73
2023/10/27 13:27:08;;;;;;;3.08;1.45;;;;;;;;;;5002643;28;20512;-74
2023/10/27 13:29:34;;;;;;;4.25;1.50;;;;;;;;;;5020120;28;20029;-74
2023/10/27 13:31:59;;;;;;;4.55;1.50;;;;;;;;;;5001864;28;20045;-74
2023/10/27 13:34:24;;;;;;;2.75;1.20;;;;;;;;;;5003808;28;20028;-75
2023/10/27 13:36:50;;;;;;;4.72;1.38;;;;;;;;;;5016236;28;20041;-75
2023/10/27 13:39:17;;;;;;;4.60;1.23;;;;;;;;;;4978354;28;20025;-75
2023/10/27 13:41:42;;;;;;;5.70;1.17;;;;;;;;;;4995310;28;20049;-75
2023/10/27 13:44:08;;;;;;;3.65;1.85;;;;;;;;;;5001537;28;20046;-74
2023/10/27 13:46:35;;;;;;;2.25;1.20;;;;;;;;;;5001707;28;20069;-75
2023/10/27 13:49:09;;;;;;;4.30;1.58;;;;;;;;;;4989910;28;20041;-75
2023/10/27 13:51:35;;;;;;;6.13;1.50;;;;;;;;;;5003183;28;20029;-75
2023/10/27 13:54:02;;;;;;;5.80;1.42;;;;;;;;;;5002443;28;20054;-75
2023/10/27 13:56:27;;;;;;;5.20;1.55;;;;;;;;;;5022027;28;20563;-75
2023/10/27 13:58:54;;;;;;;10.00;1.65;;;;;;;;;;4999622;28;20080;-75
2023/10/27 14:01:20;;;;;;;5.68;1.92;;;;;;;;;;4982243;28;20214;-75
2023/10/27 14:03:46;;;;;;;5.55;1.70;;;;;;;;;;5001705;28;20520;-75
2023/10/27 14:06:16;;;;;;;5.60;1.75;;;;;;;;;;4985339;28;20021;-74
2023/10/27 14:08:41;;;;;;;5.93;1.95;;;;;;;;;;4998553;28;20041;-74
2023/10/27 14:11:07;;;;;;;6.25;1.70;;;;;;;;;;5034506;28;20441;-74
2023/10/27 14:13:33;;;;;;;6.65;1.67;;;;;;;;;;5017901;28;20046;-74
2023/10/27 14:15:59;;;;;;;8.43;1.80;;;;;;;;;;5018504;28;20044;-74
2023/10/27 14:18:26;;;;;;;6.00;1.75;;;;;;;;;;5008539;28;20033;-74
2023/10/27 14:20:54;;;;;;;4.75;1.67;;;;;;;;;;5004041;28;20649;-74
2023/10/27 14:23:19;;;;;;;7.97;1.50;;;;;;;;;;5022161;28;20038;-74
2023/10/27 14:25:45;;;;;;;6.95;1.52;;;;;;;;;;5021821;28;20049;-73
2023/10/27 14:28:10;;;;;;;2.95;1.20;;;;;;;;;;5021566;28;20038;-73
2023/10/27 14:30:36;;;;;;;7.63;1.50;;;;;;;;;;4990393;28;20080;-73
2023/10/27 14:33:03;;;;;;;5.68;1.80;;;;;;;;;;5004579;28;20025;-74
2023/10/27 14:35:29;;;;;;;4.97;1.38;;;;;;;;;;5015369;28;20608;-74